createdAt,value
2023-09-27T00:02:40.476Z,64.07
2023-09-27T00:05:44.684Z,63.63
2023-09-27T00:08:48.850Z,64.10
2023-09-27T00:11:52.718Z,63.51
2023-09-27T00:14:58.157Z,63.64
2023-09-27T00:18:02.367Z,63.98
2023-09-27T00:21:06.284Z,64.16
2023-09-27T00:24:09.970Z,64.96
2023-09-27T00:27:14.256Z,64.67
2023-09-27T00:30:18.273Z,64.21
2023-09-27T00:33:22.601Z,63.97
2023-09-27T00:36:26.816Z,63.93
2023-09-27T00:39:30.970Z,64.51
2023-09-27T00:42:35.121Z,63.57
2023-09-27T00:45:39.394Z,63.65
2023-09-27T00:48:44.184Z,62.81
2023-09-27T00:51:48.614Z,62.75
2023-09-27T00:54:53.458Z,63.28
2023-09-27T00:57:57.957Z,63.07
2023-09-27T01:01:02.161Z,62.90
2023-09-27T01:04:06.443Z,62.62
2023-09-27T01:07:10.687Z,62.44
2023-09-27T01:10:15.162Z,62.49
2023-09-27T01:13:19.722Z,63.86
2023-09-27T01:16:24.198Z,63.71
2023-09-27T01:19:28.133Z,63.70
2023-09-27T01:22:32.025Z,63.17
2023-09-27T01:25:40.014Z,62.98
2023-09-27T01:28:49.904Z,63.21
2023-09-27T01:31:53.725Z,63.08
2023-09-27T01:34:57.584Z,62.46
2023-09-27T01:38:02.402Z,63.52
2023-09-27T01:41:06.667Z,63.83
2023-09-27T01:44:10.614Z,62.49
2023-09-27T01:47:14.493Z,62.33
2023-09-27T01:50:24.890Z,62.73
2023-09-27T01:53:28.872Z,62.63
2023-09-27T01:56:32.993Z,62.91
2023-09-27T01:59:37.019Z,62.27
2023-09-27T02:03:01.348Z,62.43
2023-09-27T02:06:05.674Z,63.16
2023-09-27T02:09:10.253Z,64.06
2023-09-27T02:12:14.234Z,64.54
2023-09-27T02:15:18.708Z,64.18
2023-09-27T02:18:22.889Z,64.08
2023-09-27T02:21:26.785Z,64.32
2023-09-27T02:24:30.769Z,63.99
2023-09-27T02:27:36.254Z,63.42
2023-09-27T02:30:40.606Z,63.69
2023-09-27T02:33:44.700Z,63.00
2023-09-27T02:36:49.851Z,63.25
2023-09-27T02:39:54.128Z,64.12
2023-09-27T02:42:58.218Z,63.83
2023-09-27T02:46:02.304Z,64.48
2023-09-27T02:49:06.575Z,64.59
2023-09-27T02:52:11.249Z,64.09
2023-09-27T02:55:16.036Z,64.78
2023-09-27T02:58:20.206Z,64.71
2023-09-27T03:01:25.666Z,64.65
2023-09-27T03:04:29.948Z,64.24
2023-09-27T03:07:37.196Z,64.69
2023-09-27T03:10:41.290Z,65.56
2023-09-27T03:13:45.555Z,65.03
2023-09-27T03:16:50.238Z,65.29
2023-09-27T03:19:54.566Z,64.85
2023-09-27T03:23:01.460Z,64.39
2023-09-27T03:26:05.731Z,65.20
2023-09-27T03:29:10.108Z,64.17
2023-09-27T03:32:14.368Z,66.28
2023-09-27T03:35:18.524Z,65.06
2023-09-27T03:38:22.506Z,64.25
2023-09-27T03:41:26.967Z,64.02
2023-09-27T03:44:31.031Z,63.20
2023-09-27T03:47:35.428Z,63.29
2023-09-27T03:50:39.226Z,62.66
2023-09-27T03:53:43.692Z,61.84
2023-09-27T03:56:48.279Z,61.76
2023-09-27T03:59:52.664Z,61.91
2023-09-27T04:02:56.971Z,62.21
2023-09-27T04:06:01.017Z,62.07
2023-09-27T04:09:06.932Z,63.26
2023-09-27T04:12:12.837Z,63.60
2023-09-27T04:15:18.760Z,64.25
2023-09-27T04:18:23.064Z,64.26
2023-09-27T04:21:27.188Z,64.01
2023-09-27T04:24:31.961Z,63.66
2023-09-27T04:27:35.993Z,63.13
2023-09-27T04:30:40.162Z,62.93
2023-09-27T04:33:45.797Z,62.91
2023-09-27T04:36:51.698Z,62.48
2023-09-27T04:39:55.913Z,62.14
2023-09-27T04:43:00.075Z,61.84
2023-09-27T04:46:03.872Z,61.71
2023-09-27T04:49:08.848Z,61.58
2023-09-27T04:52:13.303Z,62.60
2023-09-27T04:55:17.829Z,62.44
2023-09-27T04:58:21.846Z,62.28
2023-09-27T05:01:27.308Z,63.08
2023-09-27T05:04:31.513Z,62.68
2023-09-27T05:07:35.660Z,63.22
2023-09-27T05:10:39.692Z,62.85
2023-09-27T05:13:43.551Z,62.32
2023-09-27T05:16:47.694Z,62.56
2023-09-27T05:19:51.642Z,63.17
2023-09-27T05:22:55.642Z,63.02
2023-09-27T05:25:59.649Z,63.89
2023-09-27T05:29:04.556Z,62.98
2023-09-27T05:32:08.961Z,63.55
2023-09-27T05:35:13.327Z,63.55
2023-09-27T05:38:18.441Z,63.34
2023-09-27T05:41:23.872Z,63.24
2023-09-27T05:44:27.792Z,62.67
2023-09-27T05:47:32.840Z,62.71
2023-09-27T05:50:37.120Z,62.55
2023-09-27T05:53:41.351Z,62.47
2023-09-27T05:56:47.128Z,62.64
2023-09-27T05:59:51.346Z,62.21
2023-09-27T06:02:55.516Z,61.95
2023-09-27T06:05:59.975Z,61.77
2023-09-27T06:09:10.427Z,61.61
2023-09-27T06:12:14.402Z,61.71
2023-09-27T06:15:18.842Z,61.85
2023-09-27T06:18:23.385Z,61.67
2023-09-27T06:21:27.795Z,61.68
2023-09-27T06:24:31.953Z,61.51
2023-09-27T06:27:36.250Z,61.66
2023-09-27T06:30:41.708Z,61.64
2023-09-27T06:33:48.053Z,61.83
2023-09-27T06:36:54.154Z,61.70
2023-09-27T06:39:58.606Z,61.64
2023-09-27T06:43:02.887Z,61.36
2023-09-27T06:46:11.629Z,60.80
2023-09-27T06:49:16.726Z,60.38
2023-09-27T06:52:21.380Z,59.96
2023-09-27T06:55:25.470Z,59.94
2023-09-27T06:58:31.118Z,59.48
2023-09-27T07:01:35.362Z,58.82
2023-09-27T07:04:40.155Z,58.18
2023-09-27T07:07:45.363Z,57.92
2023-09-27T07:10:49.677Z,56.99
2023-09-27T07:13:53.858Z,56.02
2023-09-27T07:17:01.509Z,55.51
2023-09-27T07:20:25.566Z,54.68
2023-09-27T07:23:31.143Z,53.17
2023-09-27T07:26:35.364Z,52.12
2023-09-27T07:29:39.774Z,51.05
2023-09-27T07:32:45.175Z,50.12
2023-09-27T07:35:53.069Z,49.42
2023-09-27T07:38:59.039Z,49.12
2023-09-27T07:42:04.181Z,48.95
2023-09-27T07:45:14.513Z,48.37
2023-09-27T07:48:22.710Z,48.88
2023-09-27T07:51:26.731Z,50.12
2023-09-27T07:54:30.761Z,49.11
2023-09-27T07:57:35.843Z,50.45
2023-09-27T08:00:41.551Z,49.87
2023-09-27T08:03:45.786Z,52.75
2023-09-27T08:06:50.038Z,52.44
2023-09-27T08:09:55.413Z,52.11
2023-09-27T08:13:05.525Z,52.47
2023-09-27T08:16:09.741Z,52.11
2023-09-27T08:19:13.882Z,52.41
2023-09-27T08:22:17.977Z,53.53
2023-09-27T08:25:22.170Z,53.78
2023-09-27T08:28:26.713Z,53.33
2023-09-27T08:31:33.308Z,52.71
2023-09-27T08:34:37.331Z,51.53
2023-09-27T08:37:41.575Z,49.54
2023-09-27T08:40:48.265Z,47.78
2023-09-27T08:43:52.846Z,46.59
2023-09-27T08:46:57.780Z,47.43
2023-09-27T08:50:03.460Z,46.89
2023-09-27T08:53:07.605Z,45.81
2023-09-27T08:56:15.457Z,45.50
2023-09-27T08:59:21.520Z,46.94
2023-09-27T09:02:26.359Z,47.89
2023-09-27T09:05:31.523Z,47.00
2023-09-27T09:08:43.640Z,42.94
2023-09-27T09:11:56.064Z,40.86
2023-09-27T09:15:00.548Z,39.35
2023-09-27T09:18:07.528Z,38.45
2023-09-27T09:21:19.969Z,38.29
2023-09-27T09:24:24.341Z,37.39
2023-09-27T09:27:28.499Z,38.27
2023-09-27T09:30:40.511Z,40.19
2023-09-27T09:33:47.735Z,39.56
2023-09-27T09:36:53.395Z,37.19
2023-09-27T09:40:16.485Z,32.78
2023-09-27T09:43:29.882Z,27.95
2023-09-27T09:46:34.009Z,25.40
2023-09-27T09:49:38.266Z,22.75
2023-09-27T09:52:42.685Z,18.86
2023-09-27T09:56:09.589Z,14.78
2023-09-27T09:59:16.247Z,12.83
2023-09-27T10:02:22.079Z,13.40
2023-09-27T10:05:26.703Z,15.69
2023-09-27T10:08:36.369Z,15.54
2023-09-27T10:11:41.468Z,14.33
2023-09-27T10:14:46.971Z,13.97
2023-09-27T10:17:52.064Z,13.71
2023-09-27T10:21:03.123Z,13.22
2023-09-27T10:24:08.512Z,12.31
2023-09-27T10:27:12.680Z,12.06
2023-09-27T10:30:17.025Z,11.36
2023-09-27T10:33:27.136Z,11.29
2023-09-27T10:36:31.672Z,10.42
2023-09-27T10:39:39.777Z,10.82
2023-09-27T10:42:44.356Z,10.43
2023-09-27T10:45:57.607Z,10.52
2023-09-27T10:49:02.015Z,8.71
2023-09-27T10:52:17.206Z,8.09
2023-09-27T10:55:21.364Z,8.88
2023-09-27T10:58:25.634Z,7.08
2023-09-27T11:01:30.179Z,6.48
2023-09-27T11:04:36.562Z,6.37
2023-09-27T11:07:52.976Z,6.14
2023-09-27T11:10:58.454Z,5.39
2023-09-27T11:14:02.678Z,7.37
2023-09-27T11:17:24.319Z,6.88
2023-09-27T11:20:28.642Z,7.66
2023-09-27T11:23:57.223Z,7.24
2023-09-27T11:27:01.303Z,6.31
2023-09-27T11:30:06.382Z,5.82
2023-09-27T11:33:14.474Z,5.56
2023-09-27T11:36:20.675Z,5.35
2023-09-27T11:39:30.839Z,6.29
2023-09-27T11:42:35.070Z,7.68
2023-09-27T11:45:50.119Z,7.17
2023-09-27T11:48:54.795Z,6.91
2023-09-27T11:52:01.247Z,6.95
2023-09-27T11:55:07.206Z,8.76
2023-09-27T11:58:11.620Z,8.69
2023-09-27T12:01:16.156Z,8.79
2023-09-27T12:04:20.522Z,9.19
2023-09-27T12:07:25.612Z,11.18
2023-09-27T12:10:30.154Z,15.61
2023-09-27T12:13:34.432Z,16.96
2023-09-27T12:16:38.466Z,19.27
2023-09-27T12:19:42.770Z,20.90
2023-09-27T12:22:47.160Z,22.33
2023-09-27T12:25:51.556Z,23.07
2023-09-27T12:28:56.450Z,24.86
2023-09-27T12:32:01.409Z,24.69
2023-09-27T12:35:06.462Z,25.40
2023-09-27T12:38:11.420Z,25.75
2023-09-27T12:41:18.106Z,26.03
2023-09-27T12:44:22.955Z,25.79
2023-09-27T12:47:27.222Z,25.94
2023-09-27T12:50:31.474Z,26.69
2023-09-27T12:53:35.940Z,27.47
2023-09-27T12:56:40.196Z,27.06
2023-09-27T12:59:44.846Z,27.43
2023-09-27T13:02:49.193Z,28.63
2023-09-27T13:05:53.557Z,29.22
2023-09-27T13:08:57.859Z,28.91
2023-09-27T13:12:02.194Z,29.54
2023-09-27T13:15:07.137Z,30.30
2023-09-27T13:18:11.649Z,30.90
2023-09-27T13:21:15.979Z,31.55
2023-09-27T13:24:19.770Z,31.81
2023-09-27T13:27:23.904Z,31.42
2023-09-27T13:30:36.358Z,31.14
2023-09-27T13:33:43.005Z,31.38
2023-09-27T13:36:50.976Z,30.73
2023-09-27T13:39:55.007Z,30.89
2023-09-27T13:42:59.144Z,30.56
2023-09-27T13:46:03.649Z,31.37
2023-09-27T13:49:08.039Z,31.78
2023-09-27T13:52:12.308Z,32.90
2023-09-27T13:55:16.551Z,32.84
2023-09-27T13:58:20.919Z,32.73
2023-09-27T14:01:25.698Z,34.40
2023-09-27T14:04:29.678Z,34.33
2023-09-27T14:07:33.579Z,33.82
2023-09-27T14:10:38.106Z,34.33
2023-09-27T14:13:42.622Z,34.27
2023-09-27T14:16:48.226Z,35.04
2023-09-27T14:19:52.260Z,34.91
2023-09-27T14:22:58.132Z,34.57
2023-09-27T14:26:02.499Z,36.08
2023-09-27T14:29:07.114Z,35.89
2023-09-27T14:32:11.282Z,34.67
2023-09-27T14:35:15.507Z,33.17
2023-09-27T14:38:20.052Z,33.34
2023-09-27T14:41:25.139Z,33.66
2023-09-27T14:44:28.887Z,35.74
2023-09-27T14:47:34.208Z,35.14
2023-09-27T14:50:38.488Z,34.67
2023-09-27T14:53:44.211Z,34.02
2023-09-27T14:56:48.146Z,33.19
2023-09-27T14:59:53.580Z,35.03
2023-09-27T15:02:57.828Z,35.60
2023-09-27T15:06:02.790Z,36.41
2023-09-27T15:09:07.086Z,37.08
2023-09-27T15:12:10.898Z,36.25
2023-09-27T15:15:15.261Z,37.01
2023-09-27T15:18:21.398Z,37.04
2023-09-27T15:21:26.839Z,37.72
2023-09-27T15:24:32.121Z,38.53
2023-09-27T15:27:36.356Z,40.37
2023-09-27T15:30:41.958Z,40.12
2023-09-27T15:33:45.692Z,41.27
2023-09-27T15:36:52.459Z,41.75
2023-09-27T15:39:56.774Z,40.76
2023-09-27T15:43:01.101Z,40.77
2023-09-27T15:46:05.595Z,41.75
2023-09-27T15:49:09.952Z,41.26
2023-09-27T15:52:14.089Z,40.89
2023-09-27T15:55:18.447Z,41.51
2023-09-27T15:58:22.881Z,42.84
2023-09-27T16:01:27.252Z,42.76
2023-09-27T16:04:38.070Z,42.88
2023-09-27T16:07:50.294Z,42.80
2023-09-27T16:10:55.659Z,42.61
2023-09-27T16:14:00.500Z,43.64
2023-09-27T16:17:05.371Z,43.60
2023-09-27T16:20:09.888Z,44.38
2023-09-27T16:23:15.092Z,44.90
2023-09-27T16:26:19.122Z,44.50
2023-09-27T16:29:23.173Z,44.58
2023-09-27T16:32:27.891Z,44.94
2023-09-27T16:35:32.827Z,46.19
2023-09-27T16:38:36.673Z,46.51
2023-09-27T16:41:40.623Z,46.90
2023-09-27T16:44:44.908Z,47.51
2023-09-27T16:47:49.184Z,48.55
2023-09-27T16:50:53.279Z,48.88
2023-09-27T16:53:57.433Z,49.65
2023-09-27T16:57:01.732Z,50.77
2023-09-27T17:00:11.422Z,51.17
2023-09-27T17:03:15.828Z,51.79
2023-09-27T17:06:21.508Z,52.39
2023-09-27T17:09:25.759Z,52.97
2023-09-27T17:12:29.651Z,53.93
2023-09-27T17:15:33.790Z,54.38
2023-09-27T17:18:38.007Z,54.73
2023-09-27T17:21:41.947Z,54.81
2023-09-27T17:24:46.806Z,55.06
2023-09-27T17:27:50.717Z,55.16
2023-09-27T17:30:57.763Z,55.78
2023-09-27T17:34:05.532Z,56.04
2023-09-27T17:37:09.545Z,55.96
2023-09-27T17:40:14.038Z,57.08
2023-09-27T17:43:18.373Z,57.13
2023-09-27T17:46:23.387Z,57.48
2023-09-27T17:49:29.446Z,57.87
2023-09-27T17:52:33.641Z,57.61
2023-09-27T17:55:38.890Z,57.75
2023-09-27T17:58:43.129Z,57.92
2023-09-27T18:01:48.344Z,58.24
2023-09-27T18:04:52.473Z,59.14
2023-09-27T18:07:56.736Z,59.21
2023-09-27T18:11:14.231Z,60.15
2023-09-27T18:14:18.418Z,60.13
2023-09-27T18:17:23.081Z,59.74
2023-09-27T18:20:27.460Z,59.83
2023-09-27T18:23:31.701Z,59.98
2023-09-27T18:26:36.102Z,60.18
2023-09-27T18:29:42.133Z,60.70
2023-09-27T18:32:46.643Z,60.50
2023-09-27T18:35:50.859Z,60.12
2023-09-27T18:38:54.750Z,60.25
2023-09-27T18:41:58.909Z,59.92
2023-09-27T18:45:03.066Z,60.42
2023-09-27T18:48:09.514Z,60.02
2023-09-27T18:51:20.043Z,60.14
2023-09-27T18:54:24.217Z,59.88
2023-09-27T18:57:28.557Z,59.93
2023-09-27T19:00:33.601Z,60.48
2023-09-27T19:03:37.927Z,60.45
2023-09-27T19:06:42.155Z,60.98
2023-09-27T19:09:46.860Z,61.15
2023-09-27T19:12:50.875Z,60.88
2023-09-27T19:15:57.118Z,61.35
2023-09-27T19:19:01.411Z,60.78
2023-09-27T19:22:05.531Z,61.52
2023-09-27T19:25:10.602Z,61.27
2023-09-27T19:28:14.584Z,61.52
2023-09-27T19:31:18.713Z,61.63
2023-09-27T19:34:24.249Z,61.29
2023-09-27T19:37:28.084Z,61.25
2023-09-27T19:40:32.218Z,60.92
2023-09-27T19:43:36.649Z,61.06
2023-09-27T19:46:40.699Z,62.65
2023-09-27T19:49:44.431Z,62.22
2023-09-27T19:52:49.446Z,62.06
2023-09-27T19:55:53.979Z,62.22
2023-09-27T19:58:58.129Z,62.27
2023-09-27T20:02:03.072Z,61.51
2023-09-27T20:05:07.689Z,61.68
2023-09-27T20:08:12.782Z,61.62
2023-09-27T20:11:16.895Z,61.10
2023-09-27T20:14:21.031Z,61.29
2023-09-27T20:17:25.266Z,61.12
2023-09-27T20:20:29.678Z,60.75
2023-09-27T20:23:33.705Z,61.25
2023-09-27T20:26:37.794Z,60.72
2023-09-27T20:29:42.145Z,61.23
2023-09-27T20:32:46.438Z,61.40
2023-09-27T20:35:50.718Z,61.55
2023-09-27T20:38:54.740Z,61.48
2023-09-27T20:41:58.816Z,61.81
2023-09-27T20:45:04.046Z,61.79
2023-09-27T20:48:08.156Z,61.72
2023-09-27T20:51:12.224Z,61.19
2023-09-27T20:54:16.192Z,61.31
2023-09-27T20:57:20.519Z,62.09
2023-09-27T21:00:25.180Z,62.09
2023-09-27T21:03:29.021Z,61.78
2023-09-27T21:06:33.653Z,61.88
2023-09-27T21:09:38.589Z,61.76
2023-09-27T21:12:42.486Z,61.56
2023-09-27T21:15:46.687Z,61.11
2023-09-27T21:18:54.643Z,61.28
2023-09-27T21:21:58.953Z,61.21
2023-09-27T21:25:03.113Z,61.29
2023-09-27T21:28:08.247Z,62.17
2023-09-27T21:31:16.045Z,61.89
2023-09-27T21:34:22.614Z,61.75
2023-09-27T21:37:27.657Z,61.69
2023-09-27T21:40:31.741Z,61.78
2023-09-27T21:43:36.618Z,62.28
2023-09-27T21:46:40.580Z,61.87
2023-09-27T21:49:44.667Z,62.36
2023-09-27T21:52:48.858Z,62.16
2023-09-27T21:55:54.319Z,61.91
2023-09-27T21:58:58.661Z,61.97
2023-09-27T22:02:03.022Z,61.83
2023-09-27T22:05:07.612Z,61.83
2023-09-27T22:08:18.423Z,63.30
2023-09-27T22:11:22.814Z,63.56
2023-09-27T22:14:26.614Z,63.82
2023-09-27T22:17:36.638Z,63.87
2023-09-27T22:20:45.725Z,63.53
2023-09-27T22:23:49.809Z,62.92
2023-09-27T22:26:54.990Z,62.75
2023-09-27T22:29:59.359Z,63.85
2023-09-27T22:33:09.646Z,63.55
2023-09-27T22:36:13.928Z,64.11
2023-09-27T22:39:20.261Z,63.40
2023-09-27T22:42:24.926Z,62.75
2023-09-27T22:45:37.800Z,63.59
2023-09-27T22:48:42.186Z,62.55
2023-09-27T22:51:47.138Z,62.42
2023-09-27T22:54:51.309Z,61.72
2023-09-27T22:57:55.642Z,61.31
2023-09-27T23:01:20.358Z,62.23
2023-09-27T23:04:24.469Z,61.02
2023-09-27T23:07:31.919Z,61.58
2023-09-27T23:10:45.143Z,62.27
2023-09-27T23:14:05.980Z,63.94
2023-09-27T23:17:19.014Z,61.99
2023-09-27T23:20:29.695Z,63.24
2023-09-27T23:23:37.759Z,62.88
2023-09-27T23:27:00.234Z,60.73
2023-09-27T23:30:04.953Z,58.69
2023-09-27T23:33:11.087Z,59.13
2023-09-27T23:36:25.685Z,59.35
2023-09-27T23:39:29.929Z,57.70
2023-09-27T23:42:36.724Z,56.34
2023-09-27T23:45:40.999Z,56.38
2023-09-27T23:48:45.062Z,55.82
2023-09-27T23:51:49.214Z,55.70
2023-09-27T23:55:03.834Z,54.24
2023-09-27T23:58:13.484Z,55.25
